Time;durP1;ratioP1;P1;durP2;ratioP2;P2;SDS_P1;SDS_P2;PMS_P1;PMS_P2;Temp;Humidity;BMP_temperature;BMP_pressure;BME280_temperature;BME280_humidity;BME280_pressure;Samples;Min_cycle;Max_cycle;Signal;HPM_P1;HPM_P2
2022/01/25 00:27:05;;;;;;;34.90;12.10;;;-12.50;99.90;;;;;;5011435;28;20536;-54
2022/01/25 00:29:47;;;;;;;29.23;10.37;;;-12.50;99.90;;;;;;5012056;28;20440;-51
2022/01/25 00:32:15;;;;;;;36.87;11.47;;;-12.50;99.90;;;;;;5012004;28;20925;-52
2022/01/25 00:34:41;;;;;;;41.97;11.93;;;-12.50;99.90;;;;;;5011807;28;20421;-50
2022/01/25 00:37:06;;;;;;;23.90;8.60;;;-12.40;99.90;;;;;;5012023;28;20413;-52
2022/01/25 00:39:32;;;;;;;39.07;14.40;;;-12.40;99.90;;;;;;5011704;28;20198;-48
2022/01/25 00:41:58;;;;;;;37.60;13.40;;;-12.30;99.90;;;;;;5011462;28;20265;-49
2022/01/25 00:44:29;;;;;;;38.93;11.20;;;-12.30;99.90;;;;;;5011839;28;20499;-51
2022/01/25 00:46:55;;;;;;;36.37;13.13;;;-12.30;99.90;;;;;;5011570;28;20202;-52
2022/01/25 00:49:27;;;;;;;38.90;15.93;;;-12.20;99.90;;;;;;5011807;28;20408;-51
2022/01/25 00:57:10;;;;;;;37.97;14.63;;;-12.40;99.90;;;;;;5008381;28;20210;-51
2022/01/25 00:59:36;;;;;;;38.87;12.87;;;-12.40;99.90;;;;;;5011500;28;20421;-51
2022/01/25 01:02:09;;;;;;;34.80;12.33;;;-12.50;99.90;;;;;;5011668;28;20183;-50
2022/01/25 01:04:35;;;;;;;46.00;15.03;;;-12.50;99.90;;;;;;5011193;28;20211;-54
2022/01/25 01:07:05;;;;;;;30.43;12.13;;;-12.50;99.90;;;;;;5011537;28;20414;-50
2022/01/25 01:09:34;;;;;;;17.10;6.93;;;-12.60;99.90;;;;;;5011521;28;20413;-54
2022/01/25 01:12:05;;;;;;;24.57;10.10;;;-12.60;99.90;;;;;;5011178;28;20421;-52
2022/01/25 01:17:49;;;;;;;39.90;13.93;;;-12.50;99.90;;;;;;5011490;28;20420;-53
2022/01/25 01:44:19;;;;;;;20.83;10.20;;;-13.50;99.90;;;;;;4953855;29;20473;-54
2022/01/25 01:47:00;;;;;;;30.33;10.83;;;-13.30;99.90;;;;;;4954189;28;20415;-53
2022/01/25 01:49:28;;;;;;;33.17;10.97;;;-13.10;99.90;;;;;;4992363;28;20430;-55
2022/01/25 01:51:54;;;;;;;29.57;11.40;;;-13.00;99.90;;;;;;5014235;28;20935;-53
2022/01/25 01:54:20;;;;;;;15.47;6.37;;;-12.90;99.90;;;;;;5014238;28;20555;-53
2022/01/25 01:56:46;;;;;;;22.33;7.83;;;-12.60;99.90;;;;;;5014373;28;20274;-54
2022/01/25 01:59:15;;;;;;;45.27;13.33;;;-12.70;99.90;;;;;;5014539;28;20176;-51
2022/01/25 02:01:46;;;;;;;47.07;17.70;;;-13.00;99.90;;;;;;5014249;28;20412;-62
2022/01/25 02:04:14;;;;;;;50.70;17.50;;;-13.40;99.90;;;;;;5014486;28;20471;-58
2022/01/25 02:06:39;;;;;;;49.33;15.27;;;-13.60;99.90;;;;;;5014419;28;20413;-51
2022/01/25 02:09:07;;;;;;;28.80;11.53;;;-13.80;99.90;;;;;;4996209;28;20479;-52
2022/01/25 02:11:33;;;;;;;29.57;9.87;;;-13.90;99.90;;;;;;4997372;28;20184;-52
2022/01/25 02:14:04;;;;;;;31.27;11.90;;;-13.70;99.90;;;;;;5013768;28;20423;-52
2022/01/25 02:16:55;;;;;;;29.33;11.43;;;-13.60;99.90;;;;;;5014269;28;20183;-48
2022/01/25 02:22:29;;;;;;;33.23;7.30;;;-13.40;99.90;;;;;;4990775;28;20444;-54
2022/01/25 02:24:55;;;;;;;46.73;15.43;;;-13.30;99.90;;;;;;5013659;28;20802;-50
2022/01/25 02:27:21;;;;;;;37.97;12.97;;;-13.20;99.90;;;;;;5014139;28;20496;-52
2022/01/25 02:29:47;;;;;;;37.00;13.80;;;-13.30;99.90;;;;;;4995930;28;20508;-55
2022/01/25 02:32:13;;;;;;;35.23;15.00;;;-13.40;99.90;;;;;;5014079;28;20208;-51
2022/01/25 02:34:39;;;;;;;39.37;15.63;;;-13.30;99.90;;;;;;4996427;28;20507;-51
2022/01/25 02:37:10;;;;;;;47.77;18.10;;;-13.40;99.90;;;;;;5013622;28;20402;-52
2022/01/25 02:39:37;;;;;;;33.63;12.67;;;-13.70;99.90;;;;;;5013789;28;20401;-50
2022/01/25 02:42:05;;;;;;;53.57;19.57;;;-14.00;99.90;;;;;;5013840;28;20451;-52
2022/01/25 02:44:33;;;;;;;40.67;15.77;;;-14.20;99.90;;;;;;5013390;28;20472;-50
2022/01/25 02:49:29;;;;;;;33.03;11.73;;;-14.70;99.90;;;;;;5013702;28;20409;-54
2022/01/25 02:51:55;;;;;;;37.73;12.63;;;-14.70;99.90;;;;;;5013169;28;20421;-54
2022/01/25 02:54:21;;;;;;;29.10;9.73;;;-14.60;99.90;;;;;;5013179;28;20457;-49
2022/01/25 02:56:48;;;;;;;20.87;9.27;;;-14.50;99.90;;;;;;5013279;28;20782;-53
2022/01/25 02:59:16;;;;;;;51.47;17.43;;;-14.30;99.90;;;;;;5013659;28;20183;-58
2022/01/25 03:01:44;;;;;;;56.00;21.43;;;-14.30;99.90;;;;;;5013403;28;20405;-53
2022/01/25 03:04:10;;;;;;;25.27;10.93;;;-14.50;99.90;;;;;;5013338;28;20459;-54
2022/01/25 03:06:36;;;;;;;24.63;8.90;;;-14.40;99.90;;;;;;5013848;28;20425;-50
2022/01/25 03:09:05;;;;;;;34.17;10.93;;;-14.30;99.90;;;;;;4995371;28;20773;-52
2022/01/25 03:11:30;;;;;;;25.40;9.30;;;-14.10;99.90;;;;;;5012921;28;20405;-51
2022/01/25 03:13:59;;;;;;;26.07;8.90;;;-13.90;99.90;;;;;;5012672;28;20427;-57
2022/01/25 03:19:01;;;;;;;25.57;7.33;;;-13.40;99.90;;;;;;5012905;28;20401;-51
2022/01/25 03:23:55;;;;;;;16.27;6.87;;;-13.30;99.90;;;;;;5012379;28;20810;-51
2022/01/25 03:26:22;;;;;;;25.03;9.33;;;-13.30;99.90;;;;;;5013001;28;20409;-52
2022/01/25 03:28:48;;;;;;;24.07;7.97;;;-13.30;99.90;;;;;;5012603;28;20413;-52
2022/01/25 03:31:14;;;;;;;22.33;9.00;;;-13.30;99.90;;;;;;5012883;28;20413;-58
2022/01/25 03:33:41;;;;;;;27.10;10.30;;;-13.30;99.90;;;;;;5012531;28;20492;-51
2022/01/25 03:36:07;;;;;;;31.27;10.43;;;-13.40;99.90;;;;;;5012144;28;20802;-52
2022/01/25 03:38:38;;;;;;;41.73;10.97;;;-13.40;99.90;;;;;;5012501;28;20397;-54
2022/01/25 03:41:06;;;;;;;22.43;8.77;;;-13.50;99.90;;;;;;5012170;28;20545;-51
2022/01/25 03:43:32;;;;;;;24.43;9.20;;;-13.60;99.90;;;;;;5012589;28;20453;-52
2022/01/25 03:46:10;;;;;;;23.43;8.43;;;-13.60;99.90;;;;;;5012008;28;20425;-52
2022/01/25 03:51:20;;;;;;;23.20;8.30;;;-13.40;99.90;;;;;;5012675;28;20448;-52
2022/01/25 03:53:46;;;;;;;20.87;8.10;;;-13.40;99.90;;;;;;5012088;28;20461;-55
2022/01/25 03:56:12;;;;;;;15.37;6.00;;;-13.40;99.90;;;;;;5012065;28;20222;-53
2022/01/25 03:58:38;;;;;;;15.47;4.90;;;-13.30;99.90;;;;;;5012145;28;20202;-48
2022/01/25 04:01:03;;;;;;;18.07;6.33;;;-13.30;99.90;;;;;;4994155;28;20187;-52
2022/01/25 04:03:36;;;;;;;20.57;8.10;;;-13.30;99.90;;;;;;5011862;28;20552;-51
2022/01/25 04:06:02;;;;;;;23.97;7.47;;;-13.30;99.90;;;;;;4994295;28;20609;-48
2022/01/25 04:08:28;;;;;;;21.20;7.87;;;-13.00;99.90;;;;;;5012400;28;20474;-49
2022/01/25 04:10:54;;;;;;;23.50;9.07;;;-13.00;99.90;;;;;;5011649;28;20420;-53
2022/01/25 04:13:20;;;;;;;17.70;7.73;;;-13.00;99.90;;;;;;5012112;28;20179;-49
2022/01/25 04:15:46;;;;;;;22.80;7.33;;;-13.00;99.90;;;;;;5012056;28;20184;-50
2022/01/25 04:20:48;;;;;;;19.57;8.30;;;-13.20;99.90;;;;;;5011927;28;20479;-57
2022/01/25 04:25:58;;;;;;;17.77;5.40;;;-13.20;99.90;;;;;;4997181;28;20419;-49
2022/01/25 04:28:24;;;;;;;17.37;7.23;;;-13.20;99.90;;;;;;5011625;28;20744;-53
2022/01/25 04:30:50;;;;;;;16.07;6.70;;;-13.10;99.90;;;;;;4994058;28;20228;-60
2022/01/25 04:33:19;;;;;;;5.03;1.60;;;-13.10;99.90;;;;;;4993607;28;20187;-51
2022/01/25 04:35:58;;;;;;;18.27;5.37;;;-13.10;99.90;;;;;;5011475;28;20176;-49
2022/01/25 04:49:27;;;;;;;21.10;7.87;;;-12.90;99.90;;;;;;5011639;28;20436;-56
2022/01/25 04:52:04;;;;;;;14.30;6.17;;;-12.80;99.90;;;;;;5011250;28;20461;-54
2022/01/25 04:57:24;;;;;;;21.33;7.43;;;-12.90;99.90;;;;;;5011345;28;20405;-52
2022/01/25 04:59:53;;;;;;;19.70;8.07;;;-12.90;99.90;;;;;;5011295;28;20404;-51
2022/01/25 05:05:11;;;;;;;27.10;7.57;;;-12.90;99.90;;;;;;5010964;28;20510;-52
2022/01/25 05:07:45;;;;;;;15.00;5.77;;;-12.90;99.90;;;;;;4994098;28;20515;-52
2022/01/25 05:10:11;;;;;;;22.17;7.20;;;-12.90;99.90;;;;;;5015290;28;20420;-52
2022/01/25 05:12:43;;;;;;;22.47;7.97;;;-13.00;99.90;;;;;;5014796;28;20451;-49
2022/01/25 05:18:03;;;;;;;24.90;9.67;;;-13.10;99.90;;;;;;5014953;28;20447;-54
2022/01/25 05:23:20;;;;;;;8.07;4.10;;;-13.30;99.90;;;;;;4976767;28;20483;-53
2022/01/25 05:25:46;;;;;;;15.00;5.27;;;-13.00;99.90;;;;;;4996564;28;20429;-52
2022/01/25 05:28:12;;;;;;;12.73;6.90;;;-12.80;99.90;;;;;;5014188;28;20180;-52
2022/01/25 05:30:38;;;;;;;16.77;6.60;;;-12.60;99.90;;;;;;5014478;28;20199;-53
2022/01/25 05:33:03;;;;;;;21.70;7.57;;;-12.60;99.90;;;;;;5013613;28;20188;-54
2022/01/25 05:35:29;;;;;;;22.73;7.80;;;-12.70;99.90;;;;;;5014406;28;20191;-52
2022/01/25 05:37:55;;;;;;;18.17;6.67;;;-12.70;99.90;;;;;;4996512;28;20734;-54
2022/01/25 05:40:39;;;;;;;19.50;7.90;;;-12.70;99.90;;;;;;4996501;28;20188;-52
2022/01/25 05:45:56;;;;;;;20.40;7.50;;;-12.70;99.90;;;;;;4996806;28;20787;-54
2022/01/25 05:48:22;;;;;;;12.77;5.93;;;-12.70;99.90;;;;;;5013501;28;20786;-51
2022/01/25 05:50:48;;;;;;;49.13;18.30;;;-12.80;99.90;;;;;;5013944;28;20716;-54
2022/01/25 05:53:14;;;;;;;45.30;15.37;;;-12.90;99.90;;;;;;4995647;28;20440;-54
2022/01/25 05:55:39;;;;;;;18.17;7.33;;;-12.90;99.90;;;;;;5014490;28;20199;-54
2022/01/25 05:58:05;;;;;;;41.30;15.37;;;-13.00;99.90;;;;;;5013421;28;20270;-55
2022/01/25 06:00:31;;;;;;;44.53;15.20;;;-13.20;99.90;;;;;;5014131;28;20179;-53
2022/01/25 06:02:57;;;;;;;37.10;13.97;;;-13.30;99.90;;;;;;5013212;28;20203;-54
2022/01/25 06:05:23;;;;;;;50.70;16.57;;;-13.50;99.90;;;;;;4995581;28;20337;-51
2022/01/25 06:07:52;;;;;;;29.03;12.10;;;-13.80;99.90;;;;;;5013480;28;20631;-53
2022/01/25 06:10:18;;;;;;;37.97;15.80;;;-14.20;99.90;;;;;;5013311;28;20901;-53
2022/01/25 06:12:45;;;;;;;54.73;19.87;;;-14.20;99.90;;;;;;4995342;28;20428;-54
2022/01/25 06:15:14;;;;;;;37.07;14.90;;;-14.20;99.90;;;;;;5013134;28;20459;-56
2022/01/25 06:17:40;;;;;;;42.37;16.13;;;-14.20;99.90;;;;;;4995622;28;20500;-53
2022/01/25 06:20:07;;;;;;;45.70;15.00;;;-14.20;99.90;;;;;;5012809;28;20496;-53
2022/01/25 06:22:33;;;;;;;46.60;16.63;;;-14.10;99.90;;;;;;5012646;28;20718;-54
2022/01/25 06:24:59;;;;;;;50.87;18.23;;;-14.20;99.90;;;;;;5012927;28;20598;-55
2022/01/25 06:27:24;;;;;;;59.00;18.50;;;-14.30;99.90;;;;;;5003948;28;20663;-54
2022/01/25 06:29:50;;;;;;;54.00;18.50;;;-14.40;99.90;;;;;;5009540;28;20195;-53
2022/01/25 06:32:18;;;;;;;84.17;35.07;;;-14.50;99.90;;;;;;4996089;28;20208;-54
2022/01/25 06:34:44;;;;;;;39.00;16.90;;;-14.40;99.90;;;;;;5005323;28;20230;-60
2022/01/25 06:37:12;;;;;;;55.47;15.50;;;-14.40;99.90;;;;;;5008310;28;20503;-56
2022/01/25 06:39:38;;;;;;;38.47;17.40;;;-14.30;99.90;;;;;;5008513;28;20425;-50
2022/01/25 06:42:05;;;;;;;41.67;16.03;;;-14.10;99.90;;;;;;5012089;28;20452;-54
2022/01/25 06:44:33;;;;;;;46.87;19.73;;;-13.90;99.90;;;;;;5004394;28;20470;-56
2022/01/25 06:46:59;;;;;;;43.50;18.60;;;-13.60;99.90;;;;;;4987840;28;20811;-53
2022/01/25 06:49:25;;;;;;;38.27;15.27;;;-13.30;99.90;;;;;;4993635;28;20413;-51
2022/01/25 06:51:51;;;;;;;47.20;18.63;;;-13.00;99.90;;;;;;5003393;28;20199;-56
2022/01/25 06:54:16;;;;;;;47.40;17.47;;;-12.70;99.90;;;;;;4992728;28;20615;-54
2022/01/25 06:56:42;;;;;;;46.73;16.30;;;-12.40;99.90;;;;;;4998974;28;20525;-56
2022/01/25 06:59:08;;;;;;;21.43;7.80;;;-12.00;99.90;;;;;;4992731;28;20536;-53
2022/01/25 07:01:34;;;;;;;35.03;15.20;;;-11.60;99.90;;;;;;4999377;28;20268;-53
2022/01/25 07:04:01;;;;;;;25.93;10.73;;;-11.30;99.90;;;;;;4992657;28;20208;-53
2022/01/25 07:06:28;;;;;;;28.53;11.53;;;-11.10;99.90;;;;;;4988801;28;20812;-51
2022/01/25 07:08:54;;;;;;;86.80;29.07;;;-10.90;99.90;;;;;;4993276;28;20452;-60
2022/01/25 07:11:20;;;;;;;94.57;29.13;;;-10.90;99.90;;;;;;5009077;28;20511;-51
2022/01/25 07:13:47;;;;;;;35.37;12.40;;;-10.90;99.90;;;;;;5011704;28;20863;-52
2022/01/25 07:16:13;;;;;;;92.30;27.70;;;-10.80;99.90;;;;;;5012107;28;20628;-58
2022/01/25 07:18:39;;;;;;;19.20;9.10;;;-10.80;99.90;;;;;;5012279;28;20401;-54
2022/01/25 07:21:05;;;;;;;26.33;9.80;;;-10.50;99.90;;;;;;5010546;28;20401;-55
2022/01/25 07:23:31;;;;;;;23.67;7.77;;;-10.20;99.90;;;;;;5009998;28;20294;-58
2022/01/25 07:25:56;;;;;;;32.73;9.50;;;-10.00;99.90;;;;;;5010390;28;20817;-57
2022/01/25 07:28:22;;;;;;;31.80;11.40;;;-9.70;99.90;;;;;;5010587;28;20210;-55
2022/01/25 07:30:48;;;;;;;46.90;14.77;;;-9.60;99.90;;;;;;5010015;28;20183;-59
2022/01/25 07:33:14;;;;;;;56.60;21.70;;;-9.30;99.90;;;;;;5010437;28;20187;-57
2022/01/25 07:35:40;;;;;;;28.60;12.33;;;-9.20;99.90;;;;;;5011597;28;20180;-57
2022/01/25 07:38:06;;;;;;;68.47;23.60;;;-9.00;99.90;;;;;;5012096;28;20261;-56
2022/01/25 07:40:35;;;;;;;31.37;10.33;;;-9.10;99.90;;;;;;5012195;28;20909;-54
2022/01/25 07:43:02;;;;;;;39.73;13.87;;;-9.00;99.90;;;;;;5011419;28;20405;-56
2022/01/25 07:45:34;;;;;;;23.97;9.33;;;-8.80;99.90;;;;;;5012152;28;20409;-55
2022/01/25 07:48:01;;;;;;;21.67;9.40;;;-8.60;99.90;;;;;;5011499;28;20432;-56
2022/01/25 07:50:26;;;;;;;44.80;14.57;;;-8.30;99.90;;;;;;5012124;28;20471;-56
2022/01/25 07:52:54;;;;;;;122.50;36.97;;;-8.10;99.90;;;;;;5011156;28;20509;-52
2022/01/25 07:55:20;;;;;;;83.40;29.37;;;-8.00;99.90;;;;;;4995288;28;20289;-57
2022/01/25 07:57:45;;;;;;;97.30;35.93;;;-8.20;99.90;;;;;;4992050;28;20406;-53
2022/01/25 08:00:12;;;;;;;94.67;34.30;;;-8.40;99.90;;;;;;4991689;28;20592;-53
2022/01/25 08:02:39;;;;;;;81.90;31.57;;;-8.10;99.90;;;;;;4991139;28;20184;-54
2022/01/25 08:05:05;;;;;;;46.60;17.30;;;-8.00;99.90;;;;;;4989856;28;20468;-61
2022/01/25 08:07:31;;;;;;;38.63;14.20;;;-8.00;99.90;;;;;;4989543;28;20429;-54
2022/01/25 08:09:57;;;;;;;33.57;12.87;;;-8.10;99.90;;;;;;4989751;28;20188;-55
2022/01/25 08:12:23;;;;;;;29.60;11.40;;;-8.20;99.90;;;;;;4989968;28;20552;-53
2022/01/25 08:14:49;;;;;;;30.00;11.43;;;-8.40;99.90;;;;;;4989428;28;20191;-57
2022/01/25 08:17:16;;;;;;;28.70;12.20;;;-8.30;99.90;;;;;;4972605;28;20227;-55
2022/01/25 08:19:44;;;;;;;30.53;12.17;;;-8.30;99.90;;;;;;4991906;28;20889;-56
2022/01/25 08:22:10;;;;;;;34.17;14.13;;;-8.40;99.90;;;;;;4990973;28;20432;-52
2022/01/25 08:24:36;;;;;;;33.30;12.57;;;-8.40;99.90;;;;;;4991779;28;20549;-52
2022/01/25 08:27:02;;;;;;;42.37;13.57;;;-8.70;99.90;;;;;;4991426;28;20437;-54
2022/01/25 08:29:28;;;;;;;36.60;14.67;;;-8.80;99.90;;;;;;4991841;28;20577;-55
2022/01/25 08:31:53;;;;;;;30.60;11.30;;;-9.00;99.90;;;;;;4973744;28;20188;-63
2022/01/25 08:34:19;;;;;;;39.87;15.87;;;-9.20;99.90;;;;;;4991843;28;20285;-55
2022/01/25 08:36:45;;;;;;;45.80;15.93;;;-9.40;99.90;;;;;;4991339;28;20249;-55
2022/01/25 08:39:11;;;;;;;33.90;12.17;;;-9.30;99.90;;;;;;4991618;28;20411;-57
2022/01/25 08:41:37;;;;;;;34.60;13.00;;;-8.80;99.90;;;;;;4991365;28;20184;-54
2022/01/25 08:44:03;;;;;;;33.03;13.53;;;-8.70;99.90;;;;;;4991076;28;20208;-54
2022/01/25 08:46:29;;;;;;;38.90;14.83;;;-8.60;99.90;;;;;;4991696;28;20882;-52
2022/01/25 08:48:55;;;;;;;34.80;13.50;;;-8.80;99.90;;;;;;4973487;28;20199;-56
2022/01/25 08:51:21;;;;;;;37.33;13.10;;;-8.80;99.90;;;;;;4991804;28;21010;-56
2022/01/25 08:53:48;;;;;;;31.50;11.87;;;-8.90;99.90;;;;;;4995495;28;20353;-53
2022/01/25 08:56:13;;;;;;;40.93;17.17;;;-9.10;99.90;;;;;;5010854;28;20500;-54
2022/01/25 08:58:40;;;;;;;36.67;12.07;;;-9.00;99.90;;;;;;5010960;28;20501;-57
2022/01/25 09:01:06;;;;;;;32.13;12.57;;;-8.80;99.90;;;;;;5010642;28;20294;-55
2022/01/25 09:03:32;;;;;;;30.80;13.33;;;-8.60;99.90;;;;;;5010950;28;20494;-57
2022/01/25 09:05:58;;;;;;;41.70;13.67;;;-8.50;99.90;;;;;;5010626;28;20207;-57
2022/01/25 09:08:27;;;;;;;33.40;12.23;;;-8.30;99.90;;;;;;5010634;28;20183;-56
2022/01/25 09:10:57;;;;;;;31.60;12.40;;;-7.80;99.90;;;;;;5010976;28;20172;-61
2022/01/25 09:13:24;;;;;;;38.47;13.47;;;-7.10;99.90;;;;;;5010867;28;20532;-55
2022/01/25 09:15:51;;;;;;;50.87;17.40;;;-6.80;99.90;;;;;;5010241;28;20417;-54
2022/01/25 09:18:17;;;;;;;40.33;15.13;;;-6.80;99.90;;;;;;5010839;28;20409;-53
2022/01/25 09:20:43;;;;;;;33.63;15.20;;;-6.60;99.90;;;;;;5011181;28;20407;-56
2022/01/25 09:23:09;;;;;;;37.07;14.07;;;-6.10;99.90;;;;;;5010371;28;20201;-55
2022/01/25 09:25:36;;;;;;;37.43;16.30;;;-6.10;99.90;;;;;;5010868;28;20188;-55
2022/01/25 09:28:03;;;;;;;47.77;18.53;;;-6.00;99.90;;;;;;5010660;28;20180;-55
2022/01/25 09:30:29;;;;;;;54.40;19.30;;;-6.10;99.90;;;;;;4993401;28;20319;-55
2022/01/25 09:32:57;;;;;;;51.70;21.37;;;-6.20;99.90;;;;;;5010365;28;20639;-54
2022/01/25 09:35:24;;;;;;;67.97;26.73;;;-6.40;99.90;;;;;;5010671;28;20282;-59
2022/01/25 09:37:51;;;;;;;75.07;26.10;;;-6.40;99.90;;;;;;5010519;28;20199;-56
2022/01/25 09:40:17;;;;;;;81.80;32.47;;;-6.30;99.90;;;;;;5010019;28;20373;-52
2022/01/25 09:42:44;;;;;;;84.57;35.20;;;-6.10;99.90;;;;;;4992688;28;20190;-54
2022/01/25 09:45:10;;;;;;;90.60;39.70;;;-6.00;99.90;;;;;;5009383;28;20235;-56
2022/01/25 09:47:40;;;;;;;73.53;30.50;;;-6.00;99.90;;;;;;5010349;28;20222;-57
2022/01/25 09:50:06;;;;;;;67.73;26.17;;;-6.00;99.90;;;;;;4992211;28;20262;-55
2022/01/25 09:52:33;;;;;;;67.90;24.73;;;-6.10;99.90;;;;;;5010620;28;20179;-53
2022/01/25 09:55:02;;;;;;;64.23;24.03;;;-6.10;99.90;;;;;;4997608;28;20243;-56
2022/01/25 09:57:28;;;;;;;53.47;22.23;;;-6.40;99.90;;;;;;4994196;28;20636;-57
2022/01/25 09:59:56;;;;;;;51.77;21.50;;;-6.40;99.90;;;;;;4994024;28;20188;-57
2022/01/25 10:02:51;;;;;;;52.97;21.83;;;-6.40;99.90;;;;;;4994172;28;20215;-56
2022/01/25 10:05:25;;;;;;;50.07;21.33;;;-6.60;99.90;;;;;;4993699;28;20214;-56
2022/01/25 10:07:56;;;;;;;50.87;21.10;;;-6.60;99.90;;;;;;4993875;28;20179;-52
2022/01/25 10:10:22;;;;;;;53.10;20.40;;;-6.70;99.90;;;;;;4993777;28;20201;-55
2022/01/25 10:12:47;;;;;;;59.80;23.20;;;-6.70;99.90;;;;;;4976493;28;20476;-53
2022/01/25 10:15:13;;;;;;;60.63;23.60;;;-6.50;99.90;;;;;;4975921;28;20192;-54
2022/01/25 10:17:42;;;;;;;70.07;24.20;;;-6.30;99.90;;;;;;4976095;28;20290;-55
2022/01/25 10:20:44;;;;;;;56.77;22.77;;;-5.80;99.90;;;;;;4993418;28;20203;-55
2022/01/25 10:23:30;;;;;;;62.80;25.23;;;-5.20;99.90;;;;;;4993320;28;20206;-57
2022/01/25 10:25:59;;;;;;;60.37;24.80;;;-4.40;99.90;;;;;;4993395;28;20662;-57
2022/01/25 10:28:28;;;;;;;60.57;27.70;;;-4.00;99.90;;;;;;4976819;28;20178;-58
2022/01/25 10:30:57;;;;;;;60.17;26.27;;;-3.60;99.90;;;;;;4959517;28;20569;-53
2022/01/25 10:33:27;;;;;;;54.57;23.00;;;-3.40;99.90;;;;;;4993580;28;20182;-54
2022/01/25 10:35:54;;;;;;;55.80;22.83;;;-2.80;99.90;;;;;;4993557;28;20264;-51
2022/01/25 10:38:23;;;;;;;45.57;20.40;;;-2.30;99.90;;;;;;4975728;28;20213;-57
2022/01/25 10:40:54;;;;;;;26.90;10.10;;;-1.80;99.90;;;;;;4992982;28;20186;-55
2022/01/25 10:43:22;;;;;;;25.97;11.23;;;-1.30;99.00;;;;;;4992739;28;20262;-53
2022/01/25 10:46:07;;;;;;;20.50;8.90;;;-1.20;97.20;;;;;;4992522;28;20516;-55
2022/01/25 10:48:33;;;;;;;29.70;11.30;;;-1.00;96.30;;;;;;4993703;28;20187;-55
2022/01/25 10:51:07;;;;;;;32.73;11.77;;;-0.80;95.40;;;;;;4992702;28;20636;-55
2022/01/25 10:53:34;;;;;;;30.03;12.80;;;-0.90;94.30;;;;;;4995613;28;20195;-54
2022/01/25 10:56:00;;;;;;;23.53;11.23;;;-0.90;94.90;;;;;;5012947;28;20180;-54
2022/01/25 10:58:26;;;;;;;29.87;13.70;;;-1.10;94.20;;;;;;5012829;28;20224;-58
2022/01/25 11:00:52;;;;;;;26.30;12.50;;;-0.80;95.00;;;;;;5012803;28;20179;-53
2022/01/25 11:03:44;;;;;;;25.60;12.00;;;-0.80;93.80;;;;;;5011931;28;20282;-56
2022/01/25 11:06:18;;;;;;;26.63;12.13;;;-1.00;94.40;;;;;;5006981;28;20249;-56
2022/01/25 11:08:49;;;;;;;29.83;12.30;;;-1.20;94.60;;;;;;5011858;28;20591;-57
2022/01/25 11:11:26;;;;;;;26.37;11.20;;;-1.30;94.50;;;;;;5011596;28;20171;-56
2022/01/25 11:13:54;;;;;;;30.37;12.57;;;-1.50;94.40;;;;;;5012220;28;20310;-55
2022/01/25 11:16:19;;;;;;;32.00;13.33;;;-1.50;96.50;;;;;;4994772;28;20191;-54
2022/01/25 11:18:46;;;;;;;33.50;12.83;;;-1.40;96.20;;;;;;5012687;28;20183;-53
2022/01/25 11:21:12;;;;;;;31.40;12.77;;;-1.40;95.90;;;;;;5012024;28;20900;-56
2022/01/25 11:23:40;;;;;;;37.53;15.57;;;-1.30;96.10;;;;;;5012105;28;20218;-57
2022/01/25 11:26:09;;;;;;;34.87;15.07;;;-1.30;97.20;;;;;;5011261;28;20222;-55
2022/01/25 11:28:37;;;;;;;35.47;13.60;;;-1.10;97.20;;;;;;5012178;28;20201;-56
2022/01/25 11:31:11;;;;;;;31.57;12.17;;;-1.20;96.70;;;;;;5011672;28;20177;-65
2022/01/25 11:33:43;;;;;;;28.47;12.67;;;-1.40;97.30;;;;;;5011887;28;20874;-57
2022/01/25 11:36:09;;;;;;;30.53;14.20;;;-1.50;97.60;;;;;;5011581;28;20180;-55
2022/01/25 11:38:44;;;;;;;34.63;15.77;;;-1.50;98.20;;;;;;5011475;28;20663;-53
2022/01/25 11:41:16;;;;;;;32.50;13.87;;;-1.60;98.70;;;;;;4993601;28;20499;-55
2022/01/25 11:43:44;;;;;;;32.10;13.70;;;-1.40;99.50;;;;;;5011424;28;20215;-56
2022/01/25 11:46:10;;;;;;;24.27;11.57;;;-1.40;98.90;;;;;;5011233;28;20555;-56
2022/01/25 11:48:38;;;;;;;25.07;11.97;;;-1.60;99.80;;;;;;5012514;28;20175;-57
2022/01/25 11:51:11;;;;;;;25.17;11.63;;;-1.80;99.90;;;;;;5012285;28;20546;-64
2022/01/25 11:53:42;;;;;;;27.70;11.50;;;-1.80;99.90;;;;;;5011000;28;20235;-55
2022/01/25 11:56:10;;;;;;;19.00;9.80;;;-1.80;99.90;;;;;;5010994;28;20188;-56
2022/01/25 11:58:36;;;;;;;24.73;11.63;;;-1.80;99.90;;;;;;5011194;28;20214;-54
2022/01/25 12:01:17;;;;;;;24.73;12.03;;;-1.90;99.90;;;;;;5011840;28;20727;-57
2022/01/25 12:03:49;;;;;;;22.60;10.47;;;-2.20;99.90;;;;;;5011569;28;20211;-52
2022/01/25 12:06:34;;;;;;;27.50;11.23;;;-2.30;99.90;;;;;;5011191;28;20249;-55
2022/01/25 12:09:13;;;;;;;23.23;10.77;;;-2.40;99.90;;;;;;5011852;28;20270;-59
2022/01/25 12:11:47;;;;;;;26.40;11.47;;;-2.50;99.90;;;;;;5012565;28;20241;-55
2022/01/25 12:14:18;;;;;;;27.03;11.40;;;-2.40;99.90;;;;;;5011662;28;20182;-56
2022/01/25 12:16:51;;;;;;;29.40;13.40;;;-2.30;99.90;;;;;;5011682;28;20304;-53
2022/01/25 12:19:32;;;;;;;24.83;12.43;;;-2.20;99.90;;;;;;5011256;28;20181;-56
2022/01/25 12:22:08;;;;;;;28.50;12.77;;;-2.40;99.90;;;;;;5011538;28;20183;-58
2022/01/25 12:24:51;;;;;;;24.20;11.73;;;-2.30;99.90;;;;;;5011567;28;20305;-53
2022/01/25 12:30:08;;;;;;;25.30;12.17;;;-2.30;99.90;;;;;;5011385;28;20192;-55
2022/01/25 12:33:01;;;;;;;23.43;11.27;;;-2.20;99.90;;;;;;4977566;28;20532;-56
2022/01/25 12:35:38;;;;;;;21.73;11.17;;;-2.00;99.90;;;;;;4993414;28;20286;-55
2022/01/25 12:38:06;;;;;;;25.37;11.43;;;-2.00;99.90;;;;;;5011178;28;20191;-54
2022/01/25 12:40:35;;;;;;;25.20;12.50;;;-1.90;99.90;;;;;;5011917;28;20269;-54
2022/01/25 12:43:27;;;;;;;25.80;11.73;;;-1.80;99.90;;;;;;5011000;28;20659;-55
2022/01/25 12:45:59;;;;;;;36.17;15.43;;;-1.60;99.90;;;;;;4993395;28;20225;-58
2022/01/25 12:48:39;;;;;;;33.87;17.83;;;-1.50;99.90;;;;;;5010338;28;20219;-60
2022/01/25 12:51:09;;;;;;;32.00;14.20;;;-1.50;99.90;;;;;;5006768;28;20242;-55
2022/01/25 12:53:38;;;;;;;27.93;12.53;;;-1.20;99.90;;;;;;5010451;28;20200;-55
2022/01/25 12:56:11;;;;;;;24.90;13.10;;;-1.30;99.90;;;;;;5010897;28;20206;-55
2022/01/25 12:58:38;;;;;;;31.23;12.63;;;-1.40;99.90;;;;;;5010941;28;20187;-55
2022/01/25 13:01:08;;;;;;;33.97;16.02;;;-1.40;99.90;;;;;;5009879;28;20451;-55
2022/01/25 13:04:01;;;;;;;26.37;13.70;;;-1.40;99.90;;;;;;5011055;28;20230;-56
2022/01/25 13:06:30;;;;;;;25.87;12.50;;;-1.60;99.90;;;;;;5010441;28;20294;-52
2022/01/25 13:16:56;;;;;;;26.33;13.67;;;-1.40;99.90;;;;;;5011042;28;20539;-54
2022/01/25 13:19:26;;;;;;;23.33;12.23;;;-1.10;99.90;;;;;;5010347;28;20188;-59
2022/01/25 13:22:07;;;;;;;23.67;11.43;;;-1.40;99.90;;;;;;5010612;28;20634;-57
2022/01/25 13:24:41;;;;;;;23.83;11.40;;;-1.40;99.90;;;;;;5010882;28;20249;-57
2022/01/25 13:27:11;;;;;;;29.77;11.93;;;-1.50;99.90;;;;;;5010792;28;20619;-53
2022/01/25 13:32:30;;;;;;;24.20;10.70;;;-1.50;99.90;;;;;;5014266;28;20274;-65
2022/01/25 13:35:25;;;;;;;24.93;11.67;;;-1.70;99.90;;;;;;5014980;28;20179;-58
2022/01/25 13:38:11;;;;;;;22.23;10.83;;;-1.70;99.90;;;;;;5014590;28;20172;-57
2022/01/25 13:46:36;;;;;;;29.17;13.63;;;-1.80;99.90;;;;;;5014049;28;20186;-54
2022/01/25 13:49:13;;;;;;;31.83;15.37;;;-2.00;99.90;;;;;;5013913;28;20179;-56
2022/01/25 13:51:45;;;;;;;27.37;12.60;;;-2.00;99.90;;;;;;5014257;28;20258;-56
2022/01/25 13:54:17;;;;;;;29.13;13.73;;;-2.00;99.90;;;;;;5008202;28;20242;-61
2022/01/25 13:56:44;;;;;;;31.33;15.27;;;-2.00;99.90;;;;;;5008672;28;20199;-55
2022/01/25 13:59:10;;;;;;;25.40;13.13;;;-2.00;99.90;;;;;;5006401;28;20196;-55
2022/01/25 14:01:40;;;;;;;27.83;13.37;;;-1.90;99.90;;;;;;5010365;28;20183;-58
2022/01/25 14:04:15;;;;;;;31.13;13.73;;;-1.90;99.90;;;;;;4999971;28;20215;-55
2022/01/25 14:06:43;;;;;;;62.03;25.97;;;-2.00;99.90;;;;;;4995454;28;20643;-56
2022/01/25 14:09:13;;;;;;;36.23;16.27;;;-1.90;99.90;;;;;;5004979;28;20183;-58
2022/01/25 14:25:43;;;;;;;39.23;18.80;;;-2.50;99.90;;;;;;4993409;28;20207;-56
2022/01/25 14:28:13;;;;;;;39.57;18.30;;;-2.60;99.90;;;;;;5007303;28;20213;-56
2022/01/25 14:30:42;;;;;;;35.33;18.37;;;-2.60;99.90;;;;;;5013023;28;20559;-60
2022/01/25 14:33:14;;;;;;;36.77;17.97;;;-2.50;99.90;;;;;;5005421;28;20183;-58
2022/01/25 14:35:44;;;;;;;39.17;19.70;;;-2.50;99.90;;;;;;4993810;28;20191;-54
2022/01/25 14:38:25;;;;;;;44.03;18.47;;;-2.50;99.90;;;;;;4987374;28;20194;-56
2022/01/25 14:41:18;;;;;;;45.87;20.67;;;-2.40;99.90;;;;;;5011407;28;20240;-55
2022/01/25 14:43:53;;;;;;;41.63;19.80;;;-2.40;99.90;;;;;;4993648;28;20215;-56
2022/01/25 14:46:27;;;;;;;53.20;24.23;;;-2.50;99.90;;;;;;4992978;28;20214;-57
2022/01/25 14:49:01;;;;;;;42.43;20.93;;;-2.50;99.90;;;;;;4989729;28;20636;-56
2022/01/25 14:51:38;;;;;;;61.13;25.30;;;-2.60;99.90;;;;;;4988300;28;20187;-55